Time;durP1;ratioP1;P1;durP2;ratioP2;P2;SDS_P1;SDS_P2;PMS_P1;PMS_P2;Temp;Humidity;BMP_temperature;BMP_pressure;BME280_temperature;BME280_humidity;BME280_pressure;Samples;Min_cycle;Max_cycle;Signal;HPM_P1;HPM_P2
2021/05/19 00:00:25;;;;;;;;;;;;;;;13.13;100.00;97702.33;1712056;83;20156;-72
2021/05/19 00:02:53;;;;;;;;;;;;;;;13.11;100.00;97695.92;1703108;84;20188;-71
2021/05/19 00:05:19;;;;;;;;;;;;;;;13.13;100.00;97694.25;1707243;83;20362;-72
2021/05/19 00:07:46;;;;;;;;;;;;;;;13.13;100.00;97698.28;1712704;83;20227;-71
2021/05/19 00:10:13;;;;;;;;;;;;;;;13.11;100.00;97692.45;1713392;83;21223;-71
2021/05/19 00:12:39;;;;;;;;;;;;;;;13.06;100.00;97692.83;1715553;83;20200;-71
2021/05/19 00:15:08;;;;;;;;;;;;;;;13.03;100.00;97696.16;1715730;83;20220;-71
2021/05/19 00:17:44;;;;;;;;;;;;;;;13.00;100.00;97696.77;1716583;83;20428;-72
2021/05/19 00:20:12;;;;;;;;;;;;;;;13.01;100.00;97700.28;1712576;83;20203;-72
2021/05/19 00:22:39;;;;;;;;;;;;;;;13.01;100.00;97688.94;1714335;82;21085;-71
2021/05/19 00:25:08;;;;;;;;;;;;;;;13.00;100.00;97700.02;1707639;83;20204;-72
2021/05/19 00:27:34;;;;;;;;;;;;;;;12.97;100.00;97695.27;1713483;83;20132;-71
2021/05/19 00:30:05;;;;;;;;;;;;;;;12.93;100.00;97691.61;1714040;83;20187;-72
2021/05/19 00:32:31;;;;;;;;;;;;;;;12.91;100.00;97691.13;1715629;83;20298;-69
2021/05/19 00:34:59;;;;;;;;;;;;;;;12.87;100.00;97690.41;1713915;83;21053;-72
2021/05/19 00:37:25;;;;;;;;;;;;;;;12.85;100.00;97689.93;1714491;83;20542;-72
2021/05/19 00:39:52;;;;;;;;;;;;;;;12.89;100.00;97691.45;1713073;83;20256;-72
2021/05/19 00:42:18;;;;;;;;;;;;;;;12.91;100.00;97690.59;1714237;83;20598;-71
2021/05/19 00:44:45;;;;;;;;;;;;;;;12.91;100.00;97695.16;1712612;83;20184;-70
2021/05/19 00:47:12;;;;;;;;;;;;;;;12.88;100.00;97696.59;1713027;83;21017;-70
2021/05/19 00:49:39;;;;;;;;;;;;;;;12.86;100.00;97692.88;1713260;83;20562;-73
2021/05/19 00:52:08;;;;;;;;;;;;;;;12.85;100.00;97696.66;1661549;85;20249;-72
2021/05/19 00:54:35;;;;;;;;;;;;;;;12.84;100.00;97692.40;1662035;85;20179;-72
2021/05/19 00:57:01;;;;;;;;;;;;;;;12.85;100.00;97689.14;1676422;85;20186;-71
2021/05/19 00:59:28;;;;;;;;;;;;;;;12.85;100.00;97695.31;1672616;84;21133;-72
2021/05/19 01:01:57;;;;;;;;;;;;;;;12.88;100.00;97695.23;1663468;85;20610;-72
2021/05/19 01:04:24;;;;;;;;;;;;;;;12.90;100.00;97690.90;1668000;85;20199;-72
2021/05/19 01:07:06;;;;;;;;;;;;;;;12.93;100.00;97695.09;1633181;85;20169;-72
2021/05/19 01:09:36;;;;;;;;;;;;;;;12.93;100.00;97699.13;1711520;83;20176;-72
2021/05/19 01:12:11;;;;;;;;;;;;;;;12.97;100.00;97695.27;1711106;83;21126;-73
2021/05/19 01:14:40;;;;;;;;;;;;;;;12.98;100.00;97703.58;1713193;82;20223;-73
2021/05/19 01:17:07;;;;;;;;;;;;;;;13.01;100.00;97701.63;1714765;83;20208;-73
2021/05/19 01:19:35;;;;;;;;;;;;;;;13.02;100.00;97705.33;1715045;83;20192;-72
2021/05/19 01:22:11;;;;;;;;;;;;;;;13.00;100.00;97704.84;1714996;82;20182;-71
2021/05/19 01:24:39;;;;;;;;;;;;;;;13.00;100.00;97704.06;1710930;83;21075;-71
2021/05/19 01:27:07;;;;;;;;;;;;;;;12.97;100.00;97710.87;1712640;83;20754;-71
2021/05/19 01:29:34;;;;;;;;;;;;;;;12.94;100.00;97710.16;1716055;82;20172;-70
2021/05/19 01:32:01;;;;;;;;;;;;;;;12.91;100.00;97704.59;1711385;82;20530;-71
2021/05/19 01:34:28;;;;;;;;;;;;;;;12.88;100.00;97701.97;1714559;83;20582;-71
2021/05/19 01:36:56;;;;;;;;;;;;;;;12.87;100.00;97704.44;1715649;83;23402;-70
2021/05/19 01:39:23;;;;;;;;;;;;;;;12.85;100.00;97703.39;1717275;83;20195;-71
2021/05/19 01:41:52;;;;;;;;;;;;;;;12.83;100.00;97696.73;1714732;83;20574;-70
2021/05/19 01:44:20;;;;;;;;;;;;;;;12.83;100.00;97700.78;1718752;82;20209;-70
2021/05/19 01:46:54;;;;;;;;;;;;;;;12.80;100.00;97700.84;1714373;83;20240;-70
2021/05/19 01:49:25;;;;;;;;;;;;;;;12.80;100.00;97699.50;1717690;83;20691;-70
2021/05/19 01:51:51;;;;;;;;;;;;;;;12.79;100.00;97704.66;1715629;83;20128;-71
2021/05/19 01:54:17;;;;;;;;;;;;;;;12.79;100.00;97703.88;1716601;81;20597;-71
2021/05/19 01:56:44;;;;;;;;;;;;;;;12.78;100.00;97701.71;1715131;83;20561;-71
2021/05/19 01:59:11;;;;;;;;;;;;;;;12.80;100.00;97705.45;1696285;83;20162;-70
2021/05/19 02:01:41;;;;;;;;;;;;;;;12.78;100.00;97702.27;1713980;83;21057;-70
2021/05/19 02:04:11;;;;;;;;;;;;;;;12.76;100.00;97701.23;1719700;82;20170;-71
2021/05/19 02:06:56;;;;;;;;;;;;;;;12.74;100.00;97697.27;1713077;83;20176;-70
2021/05/19 02:09:26;;;;;;;;;;;;;;;12.74;100.00;97696.73;1706513;83;20259;-71
2021/05/19 02:11:55;;;;;;;;;;;;;;;12.77;100.00;97698.00;1718888;82;20243;-72
2021/05/19 02:14:26;;;;;;;;;;;;;;;12.77;100.00;97693.97;1713011;83;21239;-71
2021/05/19 02:16:55;;;;;;;;;;;;;;;12.77;100.00;97695.31;1713825;83;20168;-71
2021/05/19 02:19:23;;;;;;;;;;;;;;;12.77;100.00;97687.23;1716585;83;20175;-70
2021/05/19 02:21:52;;;;;;;;;;;;;;;12.77;100.00;97693.41;1716399;83;20601;-71
2021/05/19 02:24:20;;;;;;;;;;;;;;;12.78;100.00;97694.98;1717118;83;20187;-71
2021/05/19 02:26:48;;;;;;;;;;;;;;;12.78;100.00;97692.84;1713517;83;21057;-69
2021/05/19 02:29:18;;;;;;;;;;;;;;;12.79;100.00;97699.84;1717166;83;20175;-72
2021/05/19 02:31:44;;;;;;;;;;;;;;;12.78;100.00;97690.94;1688543;83;20212;-71
2021/05/19 02:34:12;;;;;;;;;;;;;;;12.81;100.00;97701.64;1714011;83;20204;-71
2021/05/19 02:36:40;;;;;;;;;;;;;;;12.82;100.00;97699.20;1716311;82;20235;-72
2021/05/19 02:39:09;;;;;;;;;;;;;;;12.85;100.00;97705.30;1716049;82;21074;-71
2021/05/19 02:41:39;;;;;;;;;;;;;;;12.88;100.00;97706.01;1715872;83;20164;-71
2021/05/19 02:44:08;;;;;;;;;;;;;;;12.87;100.00;97705.78;1713740;82;20168;-70
2021/05/19 02:46:35;;;;;;;;;;;;;;;12.87;100.00;97705.22;1716205;83;20164;-71
2021/05/19 02:49:03;;;;;;;;;;;;;;;12.85;100.00;97703.95;1715500;82;20160;-71
2021/05/19 02:51:35;;;;;;;;;;;;;;;12.84;100.00;97706.41;1714114;83;22047;-71
2021/05/19 02:54:03;;;;;;;;;;;;;;;12.85;100.00;97702.05;1708137;82;20172;-73
2021/05/19 02:56:31;;;;;;;;;;;;;;;12.87;100.00;97708.48;1716535;83;20240;-71
2021/05/19 02:58:58;;;;;;;;;;;;;;;12.88;100.00;97703.31;1715093;83;20215;-71
2021/05/19 03:01:24;;;;;;;;;;;;;;;12.93;100.00;97711.80;1715566;83;20227;-70
2021/05/19 03:03:51;;;;;;;;;;;;;;;12.91;100.00;97709.97;1713992;83;21524;-71
2021/05/19 03:06:18;;;;;;;;;;;;;;;12.93;100.00;97711.25;1713594;83;20582;-70
2021/05/19 03:08:45;;;;;;;;;;;;;;;12.95;100.00;97717.67;1714938;83;20220;-70
2021/05/19 03:11:11;;;;;;;;;;;;;;;12.98;100.00;97721.08;1708767;83;20580;-69
2021/05/19 03:13:38;;;;;;;;;;;;;;;12.99;100.00;97720.78;1712946;83;20708;-72
2021/05/19 03:16:06;;;;;;;;;;;;;;;12.99;100.00;97719.98;1716544;83;21105;-72
2021/05/19 03:18:33;;;;;;;;;;;;;;;12.98;100.00;97719.73;1715763;83;20600;-72
2021/05/19 03:21:01;;;;;;;;;;;;;;;12.99;100.00;97720.78;1715812;83;20199;-71
2021/05/19 03:23:29;;;;;;;;;;;;;;;13.02;100.00;97721.48;1688690;83;20164;-70
2021/05/19 03:25:56;;;;;;;;;;;;;;;13.02;100.00;97724.18;1715266;83;20216;-70
2021/05/19 03:28:22;;;;;;;;;;;;;;;13.02;100.00;97726.09;1712135;82;21079;-71
2021/05/19 03:30:49;;;;;;;;;;;;;;;13.04;100.00;97720.63;1713666;83;20192;-71
2021/05/19 03:33:16;;;;;;;;;;;;;;;13.06;100.00;97721.67;1713201;83;20148;-71
2021/05/19 03:35:43;;;;;;;;;;;;;;;13.06;100.00;97723.80;1715864;83;20152;-72
2021/05/19 03:38:10;;;;;;;;;;;;;;;13.08;100.00;97724.81;1717152;83;20195;-70
2021/05/19 03:40:37;;;;;;;;;;;;;;;13.09;100.00;97727.20;1712542;83;21651;-70
2021/05/19 03:43:04;;;;;;;;;;;;;;;13.11;100.00;97727.46;1712713;82;20153;-71
2021/05/19 03:45:32;;;;;;;;;;;;;;;13.12;100.00;97728.48;1714801;83;20249;-71
2021/05/19 03:47:59;;;;;;;;;;;;;;;13.13;100.00;97725.22;1712890;83;20197;-73
2021/05/19 03:50:28;;;;;;;;;;;;;;;13.14;100.00;97739.73;1716231;82;20315;-72
2021/05/19 03:52:57;;;;;;;;;;;;;;;13.15;100.00;97743.21;1712350;83;21110;-72
2021/05/19 03:55:24;;;;;;;;;;;;;;;13.12;100.00;97735.21;1711138;83;20168;-71
2021/05/19 03:57:51;;;;;;;;;;;;;;;13.12;100.00;97738.47;1716787;83;20538;-63
2021/05/19 04:00:24;;;;;;;;;;;;;;;13.12;100.00;97735.77;1716395;82;20144;-70
2021/05/19 04:02:51;;;;;;;;;;;;;;;13.16;100.00;97735.39;1710129;82;20232;-69
2021/05/19 04:05:19;;;;;;;;;;;;;;;13.14;100.00;97741.08;1712910;83;21111;-72
2021/05/19 04:07:48;;;;;;;;;;;;;;;13.14;100.00;97740.30;1714581;83;20132;-70
2021/05/19 04:10:16;;;;;;;;;;;;;;;13.12;100.00;97738.47;1715948;83;20164;-70
2021/05/19 04:12:42;;;;;;;;;;;;;;;13.11;100.00;97740.93;1714402;82;20222;-69
2021/05/19 04:15:16;;;;;;;;;;;;;;;13.12;100.00;97741.16;1713238;83;20153;-69
2021/05/19 04:17:43;;;;;;;;;;;;;;;13.12;100.00;97736.55;1714742;82;20964;-70
2021/05/19 04:20:11;;;;;;;;;;;;;;;13.14;100.00;97739.73;1714005;83;20168;-68
2021/05/19 04:22:37;;;;;;;;;;;;;;;13.15;100.00;97744.56;1708033;83;20195;-68
2021/05/19 04:25:06;;;;;;;;;;;;;;;13.17;100.00;97751.78;1714426;82;20164;-68
2021/05/19 04:27:32;;;;;;;;;;;;;;;13.20;100.00;97749.80;1715615;83;20232;-68
2021/05/19 04:29:59;;;;;;;;;;;;;;;13.24;100.00;97742.68;1712225;83;21095;-67
2021/05/19 04:32:25;;;;;;;;;;;;;;;13.25;100.00;97753.16;1714322;83;20168;-68
2021/05/19 04:34:52;;;;;;;;;;;;;;;13.31;100.00;97751.13;1715114;83;20231;-68
2021/05/19 04:37:19;;;;;;;;;;;;;;;13.33;100.00;97755.64;1716952;82;20563;-67
2021/05/19 04:39:47;;;;;;;;;;;;;;;13.31;100.00;97752.47;1715034;83;20173;-67
2021/05/19 04:42:14;;;;;;;;;;;;;;;13.28;100.00;97758.50;1715026;83;21110;-67
2021/05/19 04:44:41;;;;;;;;;;;;;;;13.25;100.00;97756.38;1716618;83;20171;-68
2021/05/19 04:47:08;;;;;;;;;;;;;;;13.25;100.00;97761.77;1716007;82;20168;-70
2021/05/19 04:49:35;;;;;;;;;;;;;;;13.32;100.00;97758.64;1717832;83;20195;-69
2021/05/19 04:52:02;;;;;;;;;;;;;;;13.38;100.00;97754.70;1714717;83;20260;-70
2021/05/19 04:54:29;;;;;;;;;;;;;;;13.39;100.00;97761.11;1713906;83;21029;-71
2021/05/19 04:56:56;;;;;;;;;;;;;;;13.45;100.00;97768.50;1713599;82;20164;-71
2021/05/19 04:59:22;;;;;;;;;;;;;;;13.46;100.00;97765.48;1718008;82;20148;-71
2021/05/19 05:01:49;;;;;;;;;;;;;;;13.51;100.00;97765.31;1712955;82;20176;-71
2021/05/19 05:04:15;;;;;;;;;;;;;;;13.63;100.00;97767.39;1714367;83;20176;-71
2021/05/19 05:06:43;;;;;;;;;;;;;;;13.71;100.00;97772.54;1712127;83;21105;-73
2021/05/19 05:09:09;;;;;;;;;;;;;;;13.77;100.00;97767.77;1711964;83;20145;-70
2021/05/19 05:11:37;;;;;;;;;;;;;;;13.88;100.00;97778.48;1712660;83;20184;-72
2021/05/19 05:14:04;;;;;;;;;;;;;;;14.00;100.00;97775.94;1716447;82;20172;-69
2021/05/19 05:16:30;;;;;;;;;;;;;;;14.00;100.00;97778.62;1711465;82;20212;-70
2021/05/19 05:19:05;;;;;;;;;;;;;;;13.93;100.00;97776.97;1710755;82;21140;-73
2021/05/19 05:21:30;;;;;;;;;;;;;;;13.87;100.00;97780.95;1711936;82;20585;-71
2021/05/19 05:24:00;;;;;;;;;;;;;;;13.82;100.00;97775.72;1675359;83;20179;-72
2021/05/19 05:26:31;;;;;;;;;;;;;;;13.83;100.00;97780.78;1672241;85;20548;-71
2021/05/19 05:28:59;;;;;;;;;;;;;;;13.87;100.00;97786.34;1672832;85;20143;-72
2021/05/19 05:31:32;;;;;;;;;;;;;;;13.81;100.00;97781.65;1676246;84;21109;-69
2021/05/19 05:34:00;;;;;;;;;;;;;;;13.77;100.00;97783.95;1666992;85;21138;-69
2021/05/19 05:36:30;;;;;;;;;;;;;;;13.78;100.00;97781.50;1674721;84;20234;-68
2021/05/19 05:38:57;;;;;;;;;;;;;;;13.80;100.00;97781.42;1677211;85;20581;-70
2021/05/19 05:41:25;;;;;;;;;;;;;;;13.80;100.00;97784.13;1672490;85;20231;-71
2021/05/19 05:43:52;;;;;;;;;;;;;;;13.77;100.00;97787.46;1660577;84;21136;-73
2021/05/19 05:46:21;;;;;;;;;;;;;;;13.72;100.00;97785.72;1674621;85;20662;-70
2021/05/19 05:48:48;;;;;;;;;;;;;;;13.65;100.00;97791.34;1675657;85;20651;-69
2021/05/19 05:51:15;;;;;;;;;;;;;;;13.61;100.00;97789.82;1675047;85;20683;-68
2021/05/19 05:53:42;;;;;;;;;;;;;;;13.62;100.00;97790.61;1721653;82;20236;-69
2021/05/19 05:56:10;;;;;;;;;;;;;;;13.60;100.00;97788.25;1724433;82;21138;-69
2021/05/19 05:58:39;;;;;;;;;;;;;;;13.66;100.00;97803.70;1716418;82;20172;-68
2021/05/19 06:01:09;;;;;;;;;;;;;;;13.62;100.00;97790.61;1716172;83;20187;-69
2021/05/19 06:03:36;;;;;;;;;;;;;;;13.55;100.00;97796.49;1712752;83;20294;-69
2021/05/19 06:06:03;;;;;;;;;;;;;;;13.54;100.00;97797.58;1713604;83;20256;-69
2021/05/19 06:08:32;;;;;;;;;;;;;;;13.53;100.00;97796.56;1708938;82;21664;-70
2021/05/19 06:11:04;;;;;;;;;;;;;;;13.48;100.00;97798.86;1715039;82;20207;-70
2021/05/19 06:13:29;;;;;;;;;;;;;;;13.43;100.00;97802.49;1712384;82;20227;-70
2021/05/19 06:15:58;;;;;;;;;;;;;;;13.39;100.00;97798.05;1716356;82;20258;-70
2021/05/19 06:18:26;;;;;;;;;;;;;;;13.35;100.00;97796.55;1712200;82;20279;-70
2021/05/19 06:20:58;;;;;;;;;;;;;;;13.28;100.00;97797.00;1712577;82;21462;-71
2021/05/19 06:23:26;;;;;;;;;;;;;;;13.26;100.00;97797.05;1704034;83;20235;-69
2021/05/19 06:25:53;;;;;;;;;;;;;;;13.23;100.00;97803.07;1702328;82;20230;-70
2021/05/19 06:28:20;;;;;;;;;;;;;;;13.21;100.00;97803.94;1703764;83;20547;-71
2021/05/19 06:30:47;;;;;;;;;;;;;;;13.21;100.00;97812.02;1714496;83;20688;-71
2021/05/19 06:33:16;;;;;;;;;;;;;;;13.20;100.00;97821.19;1713024;83;21123;-70
2021/05/19 06:35:43;;;;;;;;;;;;;;;13.21;100.00;97816.84;1712379;83;20164;-70
2021/05/19 06:38:10;;;;;;;;;;;;;;;13.26;100.00;97816.69;1713048;83;20232;-71
2021/05/19 06:40:37;;;;;;;;;;;;;;;13.27;100.00;97819.64;1717327;82;20768;-70
2021/05/19 06:43:07;;;;;;;;;;;;;;;13.33;100.00;97819.50;1715241;82;20266;-70
2021/05/19 06:45:37;;;;;;;;;;;;;;;13.36;100.00;97810.25;1708770;83;21178;-70
2021/05/19 06:48:04;;;;;;;;;;;;;;;13.40;100.00;97815.79;1710613;83;20184;-70
2021/05/19 06:50:31;;;;;;;;;;;;;;;13.40;100.00;97816.61;1710906;83;20283;-71
2021/05/19 06:52:58;;;;;;;;;;;;;;;13.40;100.00;97817.95;1714297;83;20315;-69
2021/05/19 06:55:26;;;;;;;;;;;;;;;13.41;100.00;97822.22;1705330;83;20299;-69
2021/05/19 06:57:53;;;;;;;;;;;;;;;13.41;100.00;97819.53;1704408;83;21064;-70
2021/05/19 07:00:21;;;;;;;;;;;;;;;13.45;100.00;97823.19;1713163;83;20220;-70
2021/05/19 07:02:47;;;;;;;;;;;;;;;13.49;100.00;97822.00;1712239;83;20223;-70
2021/05/19 07:05:14;;;;;;;;;;;;;;;13.58;100.00;97823.37;1709316;83;20216;-70
2021/05/19 07:07:42;;;;;;;;;;;;;;;13.62;100.00;97823.77;1713235;83;20275;-69
2021/05/19 07:10:10;;;;;;;;;;;;;;;13.65;100.00;97823.70;1703769;83;21130;-68
2021/05/19 07:12:39;;;;;;;;;;;;;;;13.69;100.00;97833.53;1707182;82;20205;-70
2021/05/19 07:15:13;;;;;;;;;;;;;;;13.70;100.00;97833.77;1712940;82;20767;-70
2021/05/19 07:17:40;;;;;;;;;;;;;;;13.70;100.00;97836.45;1708711;83;20269;-68
2021/05/19 07:20:14;;;;;;;;;;;;;;;13.67;100.00;97839.80;1713410;83;20275;-69
2021/05/19 07:22:42;;;;;;;;;;;;;;;13.68;100.00;97840.02;1708972;83;21565;-68
2021/05/19 07:25:09;;;;;;;;;;;;;;;13.68;100.00;97846.76;1671839;83;20494;-68
2021/05/19 07:27:43;;;;;;;;;;;;;;;13.70;100.00;97841.85;1678317;83;20291;-68
2021/05/19 07:30:11;;;;;;;;;;;;;;;13.64;100.00;97847.70;1707337;83;20267;-70
2021/05/19 07:32:37;;;;;;;;;;;;;;;13.59;100.00;97848.64;1707062;83;20238;-68
2021/05/19 07:35:06;;;;;;;;;;;;;;;13.61;100.00;97853.17;1712529;83;21114;-69
2021/05/19 07:37:33;;;;;;;;;;;;;;;13.66;100.00;97854.36;1707832;83;20300;-68
2021/05/19 07:40:00;;;;;;;;;;;;;;;13.71;100.00;97861.51;1710174;83;20227;-69
2021/05/19 07:42:26;;;;;;;;;;;;;;;13.72;100.00;97863.11;1705195;83;20155;-68
2021/05/19 07:44:53;;;;;;;;;;;;;;;13.73;100.00;97859.30;1725139;82;20741;-68
2021/05/19 07:47:20;;;;;;;;;;;;;;;13.77;100.00;97862.14;1712984;82;21299;-68
2021/05/19 07:49:47;;;;;;;;;;;;;;;13.76;100.00;97864.05;1712812;83;20637;-68
2021/05/19 07:52:13;;;;;;;;;;;;;;;13.78;100.00;97865.09;1710169;83;20188;-68
2021/05/19 07:54:40;;;;;;;;;;;;;;;13.82;100.00;97864.16;1702243;83;20586;-67
2021/05/19 07:57:27;;;;;;;;;;;;;;;13.90;100.00;97870.66;1710823;83;20902;-67
2021/05/19 07:59:38;;;;;;;;;;;;;;;13.98;100.00;97870.42;1707150;83;21134;-68
2021/05/19 08:02:05;;;;;;;;;;;;;;;14.06;100.00;97878.53;1713178;81;20594;-66
2021/05/19 08:04:35;;;;;;;;;;;;;;;14.11;100.00;97875.67;1709985;83;20251;-68
2021/05/19 08:07:02;;;;;;;;;;;;;;;14.07;100.00;97876.62;1704304;83;21106;-69
2021/05/19 08:09:30;;;;;;;;;;;;;;;14.07;100.00;97877.97;1706615;83;20280;-67
2021/05/19 08:11:57;;;;;;;;;;;;;;;14.12;100.00;97880.50;1707999;83;21537;-68
2021/05/19 08:14:29;;;;;;;;;;;;;;;14.14;100.00;97879.08;1705211;83;20577;-68
2021/05/19 08:16:57;;;;;;;;;;;;;;;14.18;100.00;97883.83;1713259;83;20132;-68
2021/05/19 08:19:23;;;;;;;;;;;;;;;14.22;100.00;97890.19;1699423;83;20200;-70
2021/05/19 08:21:51;;;;;;;;;;;;;;;14.24;100.00;97887.41;1712244;83;20232;-69
2021/05/19 08:24:21;;;;;;;;;;;;;;;14.31;100.00;97894.47;1707548;83;21638;-69
2021/05/19 08:26:48;;;;;;;;;;;;;;;14.36;100.00;97892.95;1715547;81;20196;-69
2021/05/19 08:29:14;;;;;;;;;;;;;;;14.38;100.00;97900.74;1707790;83;20174;-67
2021/05/19 08:31:42;;;;;;;;;;;;;;;14.26;100.00;97898.68;1690852;83;20596;-69
2021/05/19 08:34:12;;;;;;;;;;;;;;;14.21;100.00;97901.55;1712015;83;20228;-72
2021/05/19 08:36:39;;;;;;;;;;;;;;;14.16;100.00;97900.35;1711652;83;21101;-68
2021/05/19 08:39:08;;;;;;;;;;;;;;;14.08;100.00;97899.21;1707189;83;20589;-72
2021/05/19 08:41:43;;;;;;;;;;;;;;;14.06;100.00;97895.25;1712125;83;20245;-69
2021/05/19 08:44:10;;;;;;;;;;;;;;;14.03;100.00;97893.98;1710273;83;20268;-70
2021/05/19 08:46:44;;;;;;;;;;;;;;;14.04;100.00;97902.89;1708243;83;20621;-69
2021/05/19 08:49:15;;;;;;;;;;;;;;;14.14;100.00;97901.22;1715004;83;21715;-71
2021/05/19 08:51:43;;;;;;;;;;;;;;;14.16;100.00;97903.05;1713243;83;20193;-71
2021/05/19 08:54:12;;;;;;;;;;;;;;;14.21;100.00;97910.17;1702444;83;20271;-71
2021/05/19 08:56:49;;;;;;;;;;;;;;;14.19;100.00;97887.57;1715392;83;20413;-69
2021/05/19 08:59:16;;;;;;;;;;;;;;;14.21;100.00;97908.82;1707250;83;20608;-72
2021/05/19 09:01:52;;;;;;;;;;;;;;;14.27;100.00;97909.70;1707566;83;21046;-71
2021/05/19 09:04:23;;;;;;;;;;;;;;;14.24;100.00;97910.34;1713470;82;20270;-70
2021/05/19 09:06:59;;;;;;;;;;;;;;;14.35;100.00;97906.20;1715971;82;20612;-73
2021/05/19 09:09:30;;;;;;;;;;;;;;;14.32;100.00;97920.33;1717844;82;20271;-71
2021/05/19 09:12:11;;;;;;;;;;;;;;;14.24;100.00;97910.34;1718244;82;20279;-72
2021/05/19 09:15:04;;;;;;;;;;;;;;;14.30;100.00;97923.90;1719215;82;20438;-71
2021/05/19 09:17:38;;;;;;;;;;;;;;;14.33;100.00;97928.69;1722293;82;20235;-71
2021/05/19 09:20:14;;;;;;;;;;;;;;;14.30;100.00;97933.34;1722893;82;20288;-72
2021/05/19 09:22:45;;;;;;;;;;;;;;;14.29;100.00;97929.07;1708290;82;20168;-70
2021/05/19 09:25:19;;;;;;;;;;;;;;;14.32;100.00;97932.48;1684669;83;20256;-72
2021/05/19 09:27:48;;;;;;;;;;;;;;;14.31;100.00;97929.55;1700204;82;20883;-71
2021/05/19 09:30:42;;;;;;;;;;;;;;;14.24;100.00;97940.03;1715279;82;20192;-70
2021/05/19 09:33:23;;;;;;;;;;;;;;;14.15;100.00;97939.22;1710645;82;20270;-75
2021/05/19 09:36:13;;;;;;;;;;;;;;;14.00;100.00;97939.69;1720477;82;20275;-68
2021/05/19 09:38:43;;;;;;;;;;;;;;;13.86;100.00;97923.62;1693890;83;20298;-71
2021/05/19 09:41:25;;;;;;;;;;;;;;;13.82;100.00;97944.27;1687393;84;21062;-68
2021/05/19 09:43:54;;;;;;;;;;;;;;;13.86;100.00;97942.51;1683992;84;20276;-71
2021/05/19 09:49:17;;;;;;;;;;;;;;;13.81;100.00;97952.09;1689041;84;20716;-72
2021/05/19 09:51:53;;;;;;;;;;;;;;;13.67;100.00;97961.64;1688059;83;20586;-68
2021/05/19 09:54:39;;;;;;;;;;;;;;;13.53;100.00;97966.37;1673246;84;21303;-69
2021/05/19 09:57:11;;;;;;;;;;;;;;;13.47;100.00;97971.91;1682628;84;20678;-70
2021/05/19 09:59:41;;;;;;;;;;;;;;;13.40;100.00;97967.52;1691744;83;20260;-71
2021/05/19 10:02:10;;;;;;;;;;;;;;;13.45;100.00;97974.12;1689758;83;20275;-71
2021/05/19 10:04:46;;;;;;;;;;;;;;;13.45;100.00;97977.38;1691977;83;20237;-73
2021/05/19 10:07:14;;;;;;;;;;;;;;;13.41;100.00;97983.92;1670714;84;21878;-69
2021/05/19 10:09:40;;;;;;;;;;;;;;;13.39;100.00;97979.38;1656306;84;20232;-75
2021/05/19 10:12:08;;;;;;;;;;;;;;;13.31;100.00;97980.16;1692356;84;20283;-71
2021/05/19 10:14:35;;;;;;;;;;;;;;;13.28;100.00;97984.27;1684504;84;20193;-70
2021/05/19 10:17:07;;;;;;;;;;;;;;;13.37;100.00;97993.72;1675732;85;20807;-71
2021/05/19 10:19:43;;;;;;;;;;;;;;;13.50;100.00;97993.41;1708485;83;20687;-71
2021/05/19 10:22:13;;;;;;;;;;;;;;;13.51;100.00;97984.98;1711500;82;20197;-71
2021/05/19 10:24:48;;;;;;;;;;;;;;;13.44;100.00;97993.28;1709992;83;20630;-71
2021/05/19 10:27:19;;;;;;;;;;;;;;;13.32;100.00;97987.67;1714690;83;20335;-67
2021/05/19 10:29:55;;;;;;;;;;;;;;;13.05;100.00;97995.58;1711244;80;20734;-71
2021/05/19 10:32:28;;;;;;;;;;;;;;;12.92;100.00;97996.45;1705115;82;21868;-69
2021/05/19 10:34:56;;;;;;;;;;;;;;;12.92;100.00;98009.92;1707328;80;20267;-66
2021/05/19 10:37:35;;;;;;;;;;;;;;;12.91;100.00;98007.52;1710570;80;20263;-71
2021/05/19 10:40:18;;;;;;;;;;;;;;;12.89;100.00;98016.48;1708252;80;20391;-66
2021/05/19 10:42:54;;;;;;;;;;;;;;;12.90;100.00;98012.12;1710585;82;20268;-68
2021/05/19 10:45:22;;;;;;;;;;;;;;;12.91;100.00;98011.03;1710029;81;21111;-69
2021/05/19 10:47:48;;;;;;;;;;;;;;;13.03;100.00;98018.53;1683577;82;20611;-72
2021/05/19 10:50:24;;;;;;;;;;;;;;;13.06;100.00;98019.29;1708412;82;20250;-69
2021/05/19 10:59:00;;;;;;;;;;;;;;;13.22;100.00;98037.98;1714817;83;21056;-70
2021/05/19 11:01:43;;;;;;;;;;;;;;;13.15;100.00;98038.97;1711644;83;20811;-70
2021/05/19 11:04:17;;;;;;;;;;;;;;;13.14;100.00;98046.03;1707821;83;20243;-71
2021/05/19 11:07:04;;;;;;;;;;;;;;;13.05;100.00;98031.94;1682487;83;21234;-69
2021/05/19 11:09:32;;;;;;;;;;;;;;;12.87;100.00;98045.05;1711374;83;20396;-70
2021/05/19 11:12:25;;;;;;;;;;;;;;;12.80;100.00;98052.20;1709815;83;21147;-66
2021/05/19 11:15:13;;;;;;;;;;;;;;;12.83;100.00;98053.48;1711769;83;20188;-68
2021/05/19 11:17:53;;;;;;;;;;;;;;;12.89;100.00;98059.56;1705349;83;20546;-70
2021/05/19 11:20:17;;;;;;;;;;;;;;;12.97;100.00;98066.91;1714491;81;20236;-68
2021/05/19 11:22:45;;;;;;;;;;;;;;;12.92;100.00;98065.13;1710939;83;20617;-67
2021/05/19 11:25:14;;;;;;;;;;;;;;;12.86;100.00;98076.57;1711070;83;21905;-68
2021/05/19 11:27:41;;;;;;;;;;;;;;;12.75;100.00;98084.62;1711568;81;20212;-69
2021/05/19 11:30:10;;;;;;;;;;;;;;;12.69;100.00;98086.38;1703877;83;20275;-69
2021/05/19 11:32:37;;;;;;;;;;;;;;;12.67;100.00;98088.05;1702814;83;20248;-70
2021/05/19 11:35:17;;;;;;;;;;;;;;;12.60;100.00;98085.76;1714977;82;20215;-70
2021/05/19 11:37:53;;;;;;;;;;;;;;;12.61;100.00;98087.89;1708575;81;21101;-71
2021/05/19 11:40:20;;;;;;;;;;;;;;;12.68;100.00;98098.26;1704409;83;20234;-70
2021/05/19 11:42:55;;;;;;;;;;;;;;;12.67;100.00;98098.81;1704738;83;20283;-74
2021/05/19 11:45:25;;;;;;;;;;;;;;;12.60;100.00;98094.39;1706143;83;20543;-70
2021/05/19 11:47:52;;;;;;;;;;;;;;;12.46;100.00;98098.44;1707176;83;20209;-72
2021/05/19 11:50:24;;;;;;;;;;;;;;;12.39;100.00;98100.73;1705853;83;21102;-71
2021/05/19 11:53:04;;;;;;;;;;;;;;;12.39;100.00;98107.47;1706878;83;20644;-73
2021/05/19 11:55:51;;;;;;;;;;;;;;;12.31;100.00;98108.97;1707640;83;22103;-70
2021/05/19 11:58:20;;;;;;;;;;;;;;;12.23;100.00;98111.81;1705390;82;20235;-71
2021/05/19 12:00:49;;;;;;;;;;;;;;;12.20;100.00;98120.49;1710394;83;20323;-68
2021/05/19 12:03:18;;;;;;;;;;;;;;;12.20;100.00;98117.02;1705936;83;21723;-71
2021/05/19 12:05:54;;;;;;;;;;;;;;;12.12;100.00;98119.83;1713671;82;20163;-69
2021/05/19 12:08:27;;;;;;;;;;;;;;;12.00;100.00;98111.45;1713268;83;20252;-71
2021/05/19 12:11:17;;;;;;;;;;;;;;;11.89;100.00;98127.55;1701636;83;20535;-72
2021/05/19 12:13:49;;;;;;;;;;;;;;;11.77;100.00;98130.12;1708685;83;20228;-67
2021/05/19 12:16:37;;;;;;;;;;;;;;;11.66;100.00;98131.94;1710721;82;21779;-71
2021/05/19 12:19:17;;;;;;;;;;;;;;;11.62;100.00;98138.45;1706161;83;20239;-68
2021/05/19 12:21:48;;;;;;;;;;;;;;;11.61;100.00;98138.19;1703000;83;20234;-69
2021/05/19 12:24:18;;;;;;;;;;;;;;;11.61;100.00;98142.22;1724709;82;20600;-69
2021/05/19 12:26:48;;;;;;;;;;;;;;;11.58;100.00;98144.95;1714974;82;20171;-70
2021/05/19 12:29:33;;;;;;;;;;;;;;;11.56;100.00;98142.31;1696610;82;21075;-71
2021/05/19 12:32:19;;;;;;;;;;;;;;;11.52;100.00;98129.23;1713246;83;20880;-68
2021/05/19 12:35:04;;;;;;;;;;;;;;;11.49;100.00;98145.39;1708887;83;20178;-70
2021/05/19 12:37:56;;;;;;;;;;;;;;;11.43;100.00;98143.87;1711249;81;20314;-69
2021/05/19 12:40:29;;;;;;;;;;;;;;;11.47;100.00;98142.75;1696963;83;20239;-70
2021/05/19 12:43:18;;;;;;;;;;;;;;;11.46;100.00;98149.20;1711207;83;20816;-71
2021/05/19 12:45:47;;;;;;;;;;;;;;;11.46;100.00;98145.17;1700587;83;20203;-63
2021/05/19 12:48:15;;;;;;;;;;;;;;;11.49;100.00;98145.39;1705710;83;20508;-62
2021/05/19 12:50:44;;;;;;;;;;;;;;;11.50;100.00;98148.32;1703305;83;20376;-63
2021/05/19 12:53:41;;;;;;;;;;;;;;;11.50;100.00;98148.32;1703246;83;20590;-61
2021/05/19 12:56:12;;;;;;;;;;;;;;;11.47;100.00;98144.09;1701300;83;21108;-65
2021/05/19 13:02:06;;;;;;;;;;;;;;;11.49;100.00;98152.64;1664512;84;20382;-63